Time,TemperatureF,DewpointF,PressureIn,WindDirection,WindDirectionDegrees,WindSpeedMPH,WindSpeedGustMPH,Humidity,HourlyPrecipIn,Conditions,Clouds,dailyrainin,SoftwareType,DateUTC
2014-12-26 00:01:00,35.3,34.8,30.40,SW,235,0.0,0.0,98,0.00,,,0.00,WeatherCatV2.01B30,2014-12-25 23:01:00,
2014-12-26 00:06:00,35.4,34.9,30.40,SW,235,0.0,0.0,98,0.00,,,0.00,WeatherCatV2.01B30,2014-12-25 23:06:00,
2014-12-26 00:11:00,35.3,34.8,30.40,SW,235,0.0,0.0,98,0.00,,,0.00,WeatherCatV2.01B30,2014-12-25 23:11:00,
2014-12-26 00:16:00,35.3,34.8,30.40,SW,235,0.0,0.0,98,0.00,,,0.00,WeatherCatV2.01B30,2014-12-25 23:16:00,
2014-12-26 00:21:00,35.2,34.7,30.40,SW,235,0.0,1.0,98,0.00,,,0.00,WeatherCatV2.01B30,2014-12-25 23:21:00,
2014-12-26 00:26:00,35.3,34.8,30.41,SW,235,0.0,0.0,98,0.00,,,0.00,WeatherCatV2.01B30,2014-12-25 23:26:00,
2014-12-26 00:31:00,35.2,34.7,30.40,SW,235,0.0,0.0,98,0.00,,,0.00,WeatherCatV2.01B30,2014-12-25 23:31:00,
2014-12-26 00:36:00,35.3,34.8,30.40,SW,235,0.0,0.0,98,0.00,,,0.00,WeatherCatV2.01B30,2014-12-25 23:36:00,
2014-12-26 00:41:00,35.3,34.8,30.41,SW,235,0.0,0.0,98,0.00,,,0.00,WeatherCatV2.01B30,2014-12-25 23:41:00,
2014-12-26 00:46:00,35.3,34.8,30.40,SW,235,0.0,0.0,98,0.00,,,0.00,WeatherCatV2.01B30,2014-12-25 23:46:00,
2014-12-26 00:51:00,35.3,34.8,30.41,SW,235,0.0,0.0,98,0.00,,,0.00,WeatherCatV2.01B30,2014-12-25 23:51:00,
2014-12-26 00:56:00,35.3,34.8,30.40,SW,235,0.0,0.0,98,0.00,,,0.00,WeatherCatV2.01B30,2014-12-25 23:56:00,
2014-12-26 01:01:00,35.2,34.7,30.41,SW,235,0.0,0.0,98,0.00,,,0.00,WeatherCatV2.01B30,2014-12-26 00:01:00,
2014-12-26 01:06:00,35.2,34.7,30.40,SW,235,0.0,1.0,98,0.00,,,0.00,WeatherCatV2.01B30,2014-12-26 00:06:00,
2014-12-26 01:11:00,35.2,34.7,30.40,SW,236,0.0,0.0,98,0.00,,,0.00,WeatherCatV2.01B30,2014-12-26 00:11:00,
2014-12-26 01:16:00,35.1,34.6,30.41,SW,235,0.0,0.0,98,0.00,,,0.00,WeatherCatV2.01B30,2014-12-26 00:16:00,
2014-12-26 01:21:00,35.1,34.6,30.41,SW,235,0.0,0.0,98,0.00,,,0.00,WeatherCatV2.01B30,2014-12-26 00:21:00,
2014-12-26 01:26:00,35.1,34.6,30.40,SW,235,0.0,0.0,98,0.00,,,0.00,WeatherCatV2.01B30,2014-12-26 00:26:00,
2014-12-26 01:31:00,35.0,34.5,30.41,SW,235,0.0,0.0,98,0.00,,,0.00,WeatherCatV2.01B30,2014-12-26 00:31:00,
2014-12-26 01:36:00,34.9,34.4,30.41,SW,235,0.0,0.0,98,0.00,,,0.00,WeatherCatV2.01B30,2014-12-26 00:36:00,
2014-12-26 01:41:00,35.0,34.5,30.41,SW,235,0.0,0.0,98,0.00,,,0.00,WeatherCatV2.01B30,2014-12-26 00:41:00,
2014-12-26 01:46:00,35.1,34.6,30.41,SW,235,0.0,0.0,98,0.00,,,0.01,WeatherCatV2.01B30,2014-12-26 00:46:00,
2014-12-26 01:51:00,35.3,34.8,30.41,SW,235,0.0,0.0,98,0.00,,,0.01,WeatherCatV2.01B30,2014-12-26 00:51:00,
2014-12-26 01:56:00,35.6,35.1,30.41,SW,235,0.0,0.0,98,0.00,,,0.01,WeatherCatV2.01B30,2014-12-26 00:56:00,
2014-12-26 02:01:00,35.8,35.3,30.41,SW,235,0.0,0.0,98,0.00,,,0.01,WeatherCatV2.01B30,2014-12-26 01:01:00,
2014-12-26 02:06:00,35.9,35.4,30.41,SW,235,0.0,0.0,98,0.00,,,0.01,WeatherCatV2.01B30,2014-12-26 01:06:00,
2014-12-26 02:11:00,36.0,35.5,30.41,SW,235,0.0,0.0,98,0.00,,,0.01,WeatherCatV2.01B30,2014-12-26 01:11:00,
2014-12-26 02:16:00,36.1,35.8,30.41,SW,235,0.0,0.0,99,0.00,,,0.01,WeatherCatV2.01B30,2014-12-26 01:16:00,
2014-12-26 02:21:00,36.2,36.0,30.41,SW,235,0.0,0.0,99,0.00,,,0.01,WeatherCatV2.01B30,2014-12-26 01:21:00,
2014-12-26 02:26:00,36.2,36.0,30.41,SW,235,0.0,0.0,99,0.00,,,0.01,WeatherCatV2.01B30,2014-12-26 01:26:00,
2014-12-26 02:31:00,36.2,36.0,30.41,SW,235,0.0,0.0,99,0.00,,,0.01,WeatherCatV2.01B30,2014-12-26 01:31:00,
2014-12-26 02:36:00,36.2,36.0,30.41,SW,235,0.0,0.0,99,0.00,,,0.01,WeatherCatV2.01B30,2014-12-26 01:36:00,
2014-12-26 02:41:00,36.1,35.6,30.41,SW,235,0.0,0.0,98,0.00,,,0.01,WeatherCatV2.01B30,2014-12-26 01:41:00,
2014-12-26 02:46:00,36.0,35.5,30.41,SW,235,0.0,1.0,98,0.00,,,0.01,WeatherCatV2.01B30,2014-12-26 01:46:00,
2014-12-26 02:51:00,35.9,35.4,30.41,SW,235,0.0,0.0,98,0.00,,,0.01,WeatherCatV2.01B30,2014-12-26 01:51:00,
2014-12-26 02:56:00,35.8,35.3,30.41,SW,235,0.0,0.0,98,0.00,,,0.01,WeatherCatV2.01B30,2014-12-26 01:56:00,
2014-12-26 03:01:00,35.6,35.1,30.41,SW,235,0.0,0.0,98,0.00,,,0.01,WeatherCatV2.01B30,2014-12-26 02:01:00,
2014-12-26 03:06:00,35.5,35.0,30.41,SW,235,0.0,1.0,98,0.00,,,0.01,WeatherCatV2.01B30,2014-12-26 02:06:00,
2014-12-26 03:11:00,35.4,34.9,30.41,SW,235,0.0,1.0,98,0.00,,,0.01,WeatherCatV2.01B30,2014-12-26 02:11:00,
2014-12-26 03:16:00,35.4,34.9,30.41,SSW,208,0.0,0.0,98,0.00,,,0.01,WeatherCatV2.01B30,2014-12-26 02:16:00,
2014-12-26 03:21:00,35.3,34.8,30.41,SSW,208,0.0,0.0,98,0.00,,,0.01,WeatherCatV2.01B30,2014-12-26 02:21:00,
2014-12-26 03:26:00,35.3,34.8,30.41,SSW,208,0.0,0.0,98,0.00,,,0.01,WeatherCatV2.01B30,2014-12-26 02:26:00,
2014-12-26 03:31:00,35.2,34.7,30.41,SSW,208,0.0,0.0,98,0.00,,,0.01,WeatherCatV2.01B30,2014-12-26 02:31:00,
2014-12-26 03:36:00,35.3,34.8,30.41,SSW,208,0.0,0.0,98,0.00,,,0.01,WeatherCatV2.01B30,2014-12-26 02:36:00,
2014-12-26 03:41:00,35.3,34.8,30.41,SSW,208,0.0,0.0,98,0.00,,,0.01,WeatherCatV2.01B30,2014-12-26 02:41:00,
2014-12-26 03:46:00,35.3,34.8,30.41,SSW,208,0.0,0.0,98,0.00,,,0.01,WeatherCatV2.01B30,2014-12-26 02:46:00,
2014-12-26 03:51:00,35.3,34.8,30.41,SSW,208,0.0,0.0,98,0.00,,,0.01,WeatherCatV2.01B30,2014-12-26 02:51:00,
2014-12-26 03:56:00,35.3,34.8,30.41,SSW,208,0.0,0.0,98,0.00,,,0.01,WeatherCatV2.01B30,2014-12-26 02:56:00,
2014-12-26 04:01:00,35.2,34.7,30.41,SSW,208,0.0,0.0,98,0.00,,,0.01,WeatherCatV2.01B30,2014-12-26 03:01:00,
2014-12-26 04:06:00,35.2,34.7,30.41,West,259,0.0,2.0,98,0.00,,,0.01,WeatherCatV2.01B30,2014-12-26 03:06:00,
2014-12-26 04:11:00,35.1,34.6,30.41,West,259,0.0,0.0,98,0.00,,,0.01,WeatherCatV2.01B30,2014-12-26 03:11:00,
2014-12-26 04:16:00,35.1,34.6,30.41,West,259,0.0,0.0,98,0.00,,,0.01,WeatherCatV2.01B30,2014-12-26 03:16:00,
2014-12-26 04:21:00,35.0,34.5,30.41,West,259,0.0,0.0,98,0.00,,,0.01,WeatherCatV2.01B30,2014-12-26 03:21:00,
2014-12-26 04:26:00,34.9,34.4,30.41,West,259,0.0,1.0,98,0.00,,,0.01,WeatherCatV2.01B30,2014-12-26 03:26:00,
2014-12-26 04:31:00,34.8,34.3,30.41,West,259,0.0,0.0,98,0.00,,,0.01,WeatherCatV2.01B30,2014-12-26 03:31:00,
2014-12-26 04:36:00,34.8,34.3,30.41,West,259,0.0,0.0,98,0.00,,,0.01,WeatherCatV2.01B30,2014-12-26 03:36:00,
2014-12-26 04:41:00,34.7,34.2,30.41,West,259,0.0,0.0,98,0.00,,,0.01,WeatherCatV2.01B30,2014-12-26 03:41:00,
2014-12-26 04:46:00,34.7,34.2,30.41,West,259,0.0,0.0,98,0.00,,,0.01,WeatherCatV2.01B30,2014-12-26 03:46:00,
2014-12-26 04:51:00,34.6,34.1,30.41,West,259,0.0,0.0,98,0.00,,,0.01,WeatherCatV2.01B30,2014-12-26 03:51:00,
2014-12-26 04:56:00,34.6,34.1,30.41,West,259,0.0,0.0,98,0.00,,,0.01,WeatherCatV2.01B30,2014-12-26 03:56:00,
2014-12-26 05:01:00,34.6,34.1,30.41,West,259,0.0,0.0,98,0.00,,,0.01,WeatherCatV2.01B30,2014-12-26 04:01:00,
2014-12-26 05:06:00,34.6,34.1,30.41,West,259,0.0,0.0,98,0.00,,,0.01,WeatherCatV2.01B30,2014-12-26 04:06:00,
2014-12-26 05:11:00,34.7,34.2,30.41,West,259,0.0,0.0,98,0.00,,,0.01,WeatherCatV2.01B30,2014-12-26 04:11:00,
2014-12-26 05:16:00,34.8,34.3,30.41,WNW,294,0.0,1.0,98,0.00,,,0.01,WeatherCatV2.01B30,2014-12-26 04:16:00,
2014-12-26 05:21:00,34.7,34.2,30.41,WNW,294,0.0,0.0,98,0.00,,,0.01,WeatherCatV2.01B30,2014-12-26 04:21:00,
2014-12-26 05:26:00,34.7,34.2,30.41,WNW,294,0.0,0.0,98,0.00,,,0.01,WeatherCatV2.01B30,2014-12-26 04:26:00,
2014-12-26 05:31:00,34.7,34.2,30.41,WNW,294,0.0,0.0,98,0.00,,,0.01,WeatherCatV2.01B30,2014-12-26 04:31:00,
2014-12-26 05:36:00,34.7,34.2,30.41,WNW,294,0.0,0.0,98,0.00,,,0.01,WeatherCatV2.01B30,2014-12-26 04:36:00,
2014-12-26 05:41:00,34.8,34.3,30.41,WNW,294,0.0,0.0,98,0.00,,,0.01,WeatherCatV2.01B30,2014-12-26 04:41:00,
2014-12-26 05:46:00,34.9,34.4,30.41,WNW,294,0.0,0.0,98,0.00,,,0.01,WeatherCatV2.01B30,2014-12-26 04:46:00,
2014-12-26 05:51:00,35.0,34.5,30.41,SW,225,0.0,5.0,98,0.00,,,0.01,WeatherCatV2.01B30,2014-12-26 04:51:00,
2014-12-26 05:56:00,35.0,34.5,30.41,SW,225,0.0,0.0,98,0.00,,,0.01,WeatherCatV2.01B30,2014-12-26 04:56:00,
2014-12-26 06:01:00,35.0,34.5,30.41,SW,225,0.0,0.0,98,0.00,,,0.01,WeatherCatV2.01B30,2014-12-26 05:01:00,
2014-12-26 06:06:00,35.0,34.5,30.41,SW,225,0.0,0.0,98,0.00,,,0.01,WeatherCatV2.01B30,2014-12-26 05:06:00,
2014-12-26 06:11:00,35.0,34.5,30.41,SW,225,0.0,0.0,98,0.00,,,0.01,WeatherCatV2.01B30,2014-12-26 05:11:00,
2014-12-26 06:16:00,34.9,34.4,30.41,SW,225,0.0,0.0,98,0.00,,,0.01,WeatherCatV2.01B30,2014-12-26 05:16:00,
2014-12-26 06:21:00,34.9,34.4,30.41,SW,225,0.0,1.0,98,0.00,,,0.01,WeatherCatV2.01B30,2014-12-26 05:21:00,
2014-12-26 06:26:00,34.8,34.3,30.41,SW,225,0.0,0.0,98,0.00,,,0.01,WeatherCatV2.01B30,2014-12-26 05:26:00,
2014-12-26 06:31:00,34.7,34.2,30.41,SW,225,0.0,0.0,98,0.00,,,0.01,WeatherCatV2.01B30,2014-12-26 05:31:00,
2014-12-26 06:36:00,34.7,34.2,30.41,SW,225,0.0,0.0,98,0.00,,,0.01,WeatherCatV2.01B30,2014-12-26 05:36:00,
2014-12-26 06:41:00,34.6,34.1,30.41,SW,225,0.0,0.0,98,0.00,,,0.01,WeatherCatV2.01B30,2014-12-26 05:41:00,
2014-12-26 06:46:00,34.5,34.0,30.41,SW,225,0.0,0.0,98,0.00,,,0.01,WeatherCatV2.01B30,2014-12-26 05:46:00,
2014-12-26 06:51:00,34.5,34.0,30.41,SW,225,0.0,0.0,98,0.00,,,0.01,WeatherCatV2.01B30,2014-12-26 05:51:00,
2014-12-26 06:56:00,34.4,33.9,30.42,SW,225,0.0,0.0,98,0.00,,,0.01,WeatherCatV2.01B30,2014-12-26 05:56:00,
2014-12-26 07:01:00,34.5,34.0,30.42,SW,225,0.0,0.0,98,0.00,,,0.01,WeatherCatV2.01B30,2014-12-26 06:01:00,
2014-12-26 07:06:00,34.5,34.0,30.41,SW,225,0.0,0.0,98,0.00,,,0.01,WeatherCatV2.01B30,2014-12-26 06:06:00,
2014-12-26 07:11:00,34.6,34.1,30.41,SW,225,0.0,0.0,98,0.00,,,0.01,WeatherCatV2.01B30,2014-12-26 06:11:00,
2014-12-26 07:16:00,34.7,34.2,30.41,SW,225,0.0,0.0,98,0.00,,,0.01,WeatherCatV2.01B30,2014-12-26 06:16:00,
2014-12-26 07:21:00,34.8,34.5,30.41,SW,225,0.0,0.0,99,0.00,,,0.01,WeatherCatV2.01B30,2014-12-26 06:21:00,
2014-12-26 07:26:00,34.7,34.5,30.41,SW,225,0.0,0.0,99,0.00,,,0.01,WeatherCatV2.01B30,2014-12-26 06:26:00,
2014-12-26 07:31:00,34.7,34.5,30.41,SW,225,0.0,0.0,99,0.00,,,0.01,WeatherCatV2.01B30,2014-12-26 06:31:00,
2014-12-26 07:36:00,34.6,34.3,30.41,SW,225,0.0,0.0,99,0.00,,,0.01,WeatherCatV2.01B30,2014-12-26 06:36:00,
2014-12-26 07:41:00,34.5,34.0,30.41,SW,225,0.0,0.0,98,0.00,,,0.01,WeatherCatV2.01B30,2014-12-26 06:41:00,
2014-12-26 07:46:00,34.4,33.9,30.41,SW,225,0.0,0.0,98,0.00,,,0.01,WeatherCatV2.01B30,2014-12-26 06:46:00,
2014-12-26 07:51:00,34.3,33.8,30.41,SW,225,0.0,0.0,98,0.00,,,0.01,WeatherCatV2.01B30,2014-12-26 06:51:00,
2014-12-26 07:56:00,34.2,33.7,30.41,SW,225,0.0,0.0,98,0.00,,,0.01,WeatherCatV2.01B30,2014-12-26 06:56:00,
2014-12-26 08:01:00,34.1,33.6,30.41,SW,225,0.0,0.0,98,0.00,,,0.01,WeatherCatV2.01B30,2014-12-26 07:01:00,
2014-12-26 08:06:00,34.0,33.5,30.41,SW,225,0.0,0.0,98,0.00,,,0.01,WeatherCatV2.01B30,2014-12-26 07:06:00,
2014-12-26 08:11:00,33.8,33.3,30.41,SW,225,0.0,0.0,98,0.00,,,0.01,WeatherCatV2.01B30,2014-12-26 07:11:00,
2014-12-26 08:16:00,33.7,33.2,30.41,SW,225,0.0,0.0,98,0.00,,,0.01,WeatherCatV2.01B30,2014-12-26 07:16:00,
2014-12-26 08:21:00,33.6,33.1,30.42,SW,225,0.0,0.0,98,0.00,,,0.01,WeatherCatV2.01B30,2014-12-26 07:21:00,
2014-12-26 08:26:00,33.5,33.0,30.42,SW,225,0.0,0.0,98,0.00,,,0.01,WeatherCatV2.01B30,2014-12-26 07:26:00,
2014-12-26 08:31:00,33.5,33.0,30.42,SW,225,0.0,0.0,98,0.00,,,0.01,WeatherCatV2.01B30,2014-12-26 07:31:00,
2014-12-26 08:36:00,33.4,32.9,30.42,SW,225,0.0,0.0,98,0.00,,,0.01,WeatherCatV2.01B30,2014-12-26 07:36:00,
2014-12-26 08:41:00,33.5,33.0,30.42,SW,225,0.0,0.0,98,0.00,,,0.01,WeatherCatV2.01B30,2014-12-26 07:41:00,
2014-12-26 08:46:00,33.5,33.0,30.42,SW,225,0.0,0.0,98,0.00,,,0.01,WeatherCatV2.01B30,2014-12-26 07:46:00,
2014-12-26 08:51:00,33.6,33.1,30.42,SW,225,0.0,0.0,98,0.00,,,0.01,WeatherCatV2.01B30,2014-12-26 07:51:00,
2014-12-26 08:56:00,33.5,33.0,30.42,SW,225,0.0,0.0,98,0.00,,,0.01,WeatherCatV2.01B30,2014-12-26 07:56:00,
2014-12-26 09:01:00,33.5,33.0,30.42,SW,225,0.0,0.0,98,0.00,,,0.01,WeatherCatV2.01B30,2014-12-26 08:01:00,
2014-12-26 09:06:00,33.4,32.9,30.42,SW,225,0.0,0.0,98,0.00,,,0.01,WeatherCatV2.01B30,2014-12-26 08:06:00,
2014-12-26 09:11:00,33.4,32.9,30.43,SW,225,0.0,0.0,98,0.00,,,0.01,WeatherCatV2.01B30,2014-12-26 08:11:00,
2014-12-26 09:16:00,33.4,32.9,30.43,SW,225,0.0,0.0,98,0.00,,,0.01,WeatherCatV2.01B30,2014-12-26 08:16:00,
2014-12-26 09:21:00,33.4,32.9,30.43,SW,225,0.0,0.0,98,0.00,,,0.01,WeatherCatV2.01B30,2014-12-26 08:21:00,
2014-12-26 09:26:00,33.5,33.0,30.43,SW,225,0.0,0.0,98,0.00,,,0.01,WeatherCatV2.01B30,2014-12-26 08:26:00,
2014-12-26 09:31:00,33.7,33.2,30.43,SW,225,0.0,0.0,98,0.00,,,0.01,WeatherCatV2.01B30,2014-12-26 08:31:00,
2014-12-26 09:36:00,33.9,33.4,30.43,SW,225,0.0,0.0,98,0.00,,,0.01,WeatherCatV2.01B30,2014-12-26 08:36:00,
2014-12-26 09:41:00,34.2,34.0,30.43,SW,225,0.0,0.0,99,0.00,,,0.01,WeatherCatV2.01B30,2014-12-26 08:41:00,
2014-12-26 09:46:00,34.4,34.2,30.43,SW,225,0.0,0.0,99,0.00,,,0.01,WeatherCatV2.01B30,2014-12-26 08:46:00,
2014-12-26 09:51:00,34.7,34.5,30.43,SW,225,0.0,0.0,99,0.00,,,0.01,WeatherCatV2.01B30,2014-12-26 08:51:00,
2014-12-26 09:56:00,34.8,34.5,30.43,SW,225,0.0,0.0,99,0.00,,,0.01,WeatherCatV2.01B30,2014-12-26 08:56:00,
2014-12-26 10:01:00,35.0,34.8,30.43,SW,225,0.0,0.0,99,0.00,,,0.01,WeatherCatV2.01B30,2014-12-26 09:01:00,
2014-12-26 10:06:00,35.1,34.8,30.43,SW,225,0.0,0.0,99,0.00,,,0.01,WeatherCatV2.01B30,2014-12-26 09:06:00,
2014-12-26 10:11:00,35.2,35.0,30.43,SW,225,0.0,0.0,99,0.00,,,0.01,WeatherCatV2.01B30,2014-12-26 09:11:00,
2014-12-26 10:16:00,35.3,35.0,30.43,SW,225,0.0,1.0,99,0.00,,,0.01,WeatherCatV2.01B30,2014-12-26 09:16:00,
2014-12-26 10:21:00,35.4,35.2,30.43,SW,225,1.0,1.0,99,0.00,,,0.01,WeatherCatV2.01B30,2014-12-26 09:21:00,
2014-12-26 10:26:00,35.6,35.3,30.43,SW,225,0.0,1.0,99,0.00,,,0.01,WeatherCatV2.01B30,2014-12-26 09:26:00,
2014-12-26 10:31:00,35.8,35.5,30.43,SW,225,0.0,0.0,99,0.00,,,0.01,WeatherCatV2.01B30,2014-12-26 09:31:00,
2014-12-26 10:36:00,36.0,35.8,30.43,SW,225,0.0,0.0,99,0.00,,,0.01,WeatherCatV2.01B30,2014-12-26 09:36:00,
2014-12-26 10:41:00,36.2,36.0,30.43,SW,225,0.0,0.0,99,0.00,,,0.01,WeatherCatV2.01B30,2014-12-26 09:41:00,
2014-12-26 10:46:00,36.4,36.2,30.43,SW,225,0.0,0.0,99,0.00,,,0.01,WeatherCatV2.01B30,2014-12-26 09:46:00,
2014-12-26 10:51:00,36.6,36.3,30.43,SW,225,0.0,0.0,99,0.00,,,0.01,WeatherCatV2.01B30,2014-12-26 09:51:00,
2014-12-26 10:56:00,37.0,36.8,30.43,SW,225,0.0,0.0,99,0.00,,,0.01,WeatherCatV2.01B30,2014-12-26 09:56:00,
2014-12-26 11:01:00,37.4,37.1,30.43,SW,225,0.0,0.0,99,0.00,,,0.01,WeatherCatV2.01B30,2014-12-26 10:01:00,
2014-12-26 11:06:00,37.6,37.3,30.43,SW,225,0.0,2.0,99,0.00,,,0.01,WeatherCatV2.01B30,2014-12-26 10:06:00,
2014-12-26 11:11:00,37.7,37.4,30.42,SW,225,0.0,1.0,99,0.00,,,0.01,WeatherCatV2.01B30,2014-12-26 10:11:00,
2014-12-26 11:16:00,37.8,37.5,30.42,SW,225,0.0,0.0,99,0.00,,,0.01,WeatherCatV2.01B30,2014-12-26 10:16:00,
2014-12-26 11:21:00,37.9,37.6,30.42,SW,225,0.0,0.0,99,0.00,,,0.01,WeatherCatV2.01B30,2014-12-26 10:21:00,
2014-12-26 11:26:00,38.0,37.7,30.42,SW,225,0.0,0.0,99,0.00,,,0.01,WeatherCatV2.01B30,2014-12-26 10:26:00,
2014-12-26 11:31:00,38.1,37.8,30.42,SW,225,0.0,0.0,99,0.00,,,0.01,WeatherCatV2.01B30,2014-12-26 10:31:00,
2014-12-26 11:36:00,38.2,37.9,30.42,SW,225,0.0,0.0,99,0.00,,,0.01,WeatherCatV2.01B30,2014-12-26 10:36:00,
2014-12-26 11:41:00,38.4,38.1,30.42,SW,225,0.0,1.0,99,0.00,,,0.01,WeatherCatV2.01B30,2014-12-26 10:41:00,
2014-12-26 11:46:00,38.5,38.2,30.41,SW,225,0.0,0.0,99,0.00,,,0.01,WeatherCatV2.01B30,2014-12-26 10:46:00,
2014-12-26 11:51:00,38.6,38.3,30.42,SW,225,0.0,0.0,99,0.00,,,0.01,WeatherCatV2.01B30,2014-12-26 10:51:00,
2014-12-26 11:56:00,38.7,38.4,30.41,West,260,0.0,3.0,99,0.00,,,0.01,WeatherCatV2.01B30,2014-12-26 10:56:00,
2014-12-26 12:01:00,38.9,38.6,30.41,West,260,0.0,2.0,99,0.00,,,0.01,WeatherCatV2.01B30,2014-12-26 11:01:00,
2014-12-26 12:06:00,39.1,38.8,30.41,West,260,0.0,0.0,99,0.00,,,0.01,WeatherCatV2.01B30,2014-12-26 11:06:00,
2014-12-26 12:11:00,39.2,38.9,30.41,West,260,0.0,0.0,99,0.00,,,0.01,WeatherCatV2.01B30,2014-12-26 11:11:00,
2014-12-26 12:16:00,39.4,39.1,30.41,West,260,0.0,0.0,99,0.00,,,0.01,WeatherCatV2.01B30,2014-12-26 11:16:00,
2014-12-26 12:21:00,39.6,39.3,30.41,West,260,0.0,1.0,99,0.00,,,0.01,WeatherCatV2.01B30,2014-12-26 11:21:00,
2014-12-26 12:26:00,39.7,39.4,30.41,West,260,0.0,0.0,99,0.00,,,0.01,WeatherCatV2.01B30,2014-12-26 11:26:00,
2014-12-26 12:31:00,39.8,39.5,30.41,West,260,0.0,0.0,99,0.00,,,0.01,WeatherCatV2.01B30,2014-12-26 11:31:00,
2014-12-26 12:36:00,39.9,39.6,30.40,West,260,0.0,0.0,99,0.00,,,0.01,WeatherCatV2.01B30,2014-12-26 11:36:00,
2014-12-26 12:41:00,40.0,39.7,30.40,WNW,297,0.0,0.0,99,0.00,,,0.01,WeatherCatV2.01B30,2014-12-26 11:41:00,
2014-12-26 12:46:00,40.0,39.7,30.40,SW,221,0.0,2.0,99,0.00,,,0.01,WeatherCatV2.01B30,2014-12-26 11:46:00,
2014-12-26 12:51:00,40.1,39.8,30.40,SW,221,0.0,0.0,99,0.00,,,0.01,WeatherCatV2.01B30,2014-12-26 11:51:00,
2014-12-26 12:56:00,40.1,39.8,30.39,SW,221,0.0,1.0,99,0.00,,,0.01,WeatherCatV2.01B30,2014-12-26 11:56:00,
2014-12-26 13:01:00,40.2,39.9,30.39,SW,221,1.0,1.0,99,0.00,,,0.01,WeatherCatV2.01B30,2014-12-26 12:01:00,
2014-12-26 13:06:00,40.2,39.9,30.39,SW,221,0.0,0.0,99,0.00,,,0.01,WeatherCatV2.01B30,2014-12-26 12:06:00,
2014-12-26 13:11:00,40.3,40.0,30.39,SW,221,0.0,0.0,99,0.00,,,0.01,WeatherCatV2.01B30,2014-12-26 12:11:00,
2014-12-26 13:16:00,40.4,40.1,30.39,SW,221,0.0,0.0,99,0.00,,,0.01,WeatherCatV2.01B30,2014-12-26 12:16:00,
2014-12-26 13:21:00,40.4,40.1,30.38,SW,221,0.0,1.0,99,0.00,,,0.01,WeatherCatV2.01B30,2014-12-26 12:21:00,
2014-12-26 13:26:00,40.5,40.2,30.38,SW,221,0.0,0.0,99,0.00,,,0.01,WeatherCatV2.01B30,2014-12-26 12:26:00,
2014-12-26 13:31:00,40.6,40.3,30.38,SW,221,0.0,0.0,99,0.00,,,0.01,WeatherCatV2.01B30,2014-12-26 12:31:00,
2014-12-26 13:36:00,40.7,40.4,30.38,SW,221,0.0,0.0,99,0.00,,,0.01,WeatherCatV2.01B30,2014-12-26 12:36:00,
2014-12-26 13:41:00,40.7,40.4,30.38,SW,221,0.0,0.0,99,0.00,,,0.01,WeatherCatV2.01B30,2014-12-26 12:41:00,
2014-12-26 13:46:00,40.7,40.4,30.38,SW,221,0.0,0.0,99,0.00,,,0.01,WeatherCatV2.01B30,2014-12-26 12:46:00,
2014-12-26 13:51:00,40.8,40.5,30.38,SW,221,0.0,0.0,99,0.00,,,0.01,WeatherCatV2.01B30,2014-12-26 12:51:00,
2014-12-26 13:56:00,40.8,40.8,30.37,SW,221,0.0,0.0,100,0.00,,,0.01,WeatherCatV2.01B30,2014-12-26 12:56:00,
2014-12-26 14:01:00,40.8,40.5,30.37,SW,221,0.0,0.0,99,0.00,,,0.01,WeatherCatV2.01B30,2014-12-26 13:01:00,
2014-12-26 14:06:00,40.9,40.6,30.37,SW,221,0.0,0.0,99,0.00,,,0.01,WeatherCatV2.01B30,2014-12-26 13:06:00,
2014-12-26 14:11:00,40.9,40.6,30.37,SW,221,0.0,0.0,99,0.00,,,0.01,WeatherCatV2.01B30,2014-12-26 13:11:00,
2014-12-26 14:16:00,40.9,40.6,30.36,SW,221,0.0,0.0,99,0.00,,,0.01,WeatherCatV2.01B30,2014-12-26 13:16:00,
2014-12-26 14:21:00,41.0,40.7,30.36,SW,221,0.0,0.0,99,0.00,,,0.01,WeatherCatV2.01B30,2014-12-26 13:21:00,
2014-12-26 14:26:00,41.1,40.8,30.36,SW,221,0.0,0.0,99,0.00,,,0.01,WeatherCatV2.01B30,2014-12-26 13:26:00,
2014-12-26 14:31:00,41.1,40.8,30.36,SW,221,0.0,1.0,99,0.00,,,0.01,WeatherCatV2.01B30,2014-12-26 13:31:00,
2014-12-26 14:36:00,41.1,40.8,30.36,SW,221,0.0,0.0,99,0.00,,,0.01,WeatherCatV2.01B30,2014-12-26 13:36:00,
2014-12-26 14:41:00,41.0,40.7,30.35,SW,221,0.0,0.0,99,0.00,,,0.01,WeatherCatV2.01B30,2014-12-26 13:41:00,
2014-12-26 14:46:00,40.9,40.6,30.35,SW,221,0.0,0.0,99,0.00,,,0.01,WeatherCatV2.01B30,2014-12-26 13:46:00,
2014-12-26 14:51:00,40.8,40.5,30.35,SW,221,0.0,0.0,99,0.00,,,0.01,WeatherCatV2.01B30,2014-12-26 13:51:00,
2014-12-26 14:56:00,40.8,40.5,30.35,SW,221,0.0,1.0,99,0.00,,,0.01,WeatherCatV2.01B30,2014-12-26 13:56:00,
2014-12-26 15:01:00,40.7,40.4,30.35,SW,221,0.0,0.0,99,0.00,,,0.01,WeatherCatV2.01B30,2014-12-26 14:01:00,
2014-12-26 15:06:00,40.7,40.4,30.35,SW,221,0.0,0.0,99,0.00,,,0.01,WeatherCatV2.01B30,2014-12-26 14:06:00,
2014-12-26 15:11:00,40.7,40.2,30.34,SW,221,0.0,0.0,98,0.00,,,0.01,WeatherCatV2.01B30,2014-12-26 14:11:00,
2014-12-26 15:16:00,40.6,40.1,30.34,SW,221,0.0,0.0,98,0.00,,,0.01,WeatherCatV2.01B30,2014-12-26 14:16:00,
2014-12-26 15:21:00,40.6,40.1,30.34,SW,221,0.0,0.0,98,0.00,,,0.01,WeatherCatV2.01B30,2014-12-26 14:21:00,
2014-12-26 15:26:00,40.5,40.0,30.34,SW,221,0.0,0.0,98,0.00,,,0.01,WeatherCatV2.01B30,2014-12-26 14:26:00,
2014-12-26 15:31:00,40.5,40.0,30.34,SW,221,0.0,0.0,98,0.00,,,0.01,WeatherCatV2.01B30,2014-12-26 14:31:00,
2014-12-26 15:36:00,40.4,39.9,30.33,SW,221,0.0,0.0,98,0.00,,,0.01,WeatherCatV2.01B30,2014-12-26 14:36:00,
2014-12-26 15:41:00,40.3,39.8,30.33,SW,221,0.0,0.0,98,0.00,,,0.01,WeatherCatV2.01B30,2014-12-26 14:41:00,
2014-12-26 15:46:00,40.2,39.7,30.33,SW,221,0.0,0.0,98,0.00,,,0.01,WeatherCatV2.01B30,2014-12-26 14:46:00,
2014-12-26 15:51:00,40.1,39.6,30.33,SW,221,0.0,0.0,98,0.00,,,0.01,WeatherCatV2.01B30,2014-12-26 14:51:00,
2014-12-26 15:56:00,39.9,39.4,30.33,SW,221,0.0,0.0,98,0.00,,,0.01,WeatherCatV2.01B30,2014-12-26 14:56:00,
2014-12-26 16:01:00,39.9,39.4,30.33,SW,215,0.0,0.0,98,0.00,,,0.01,WeatherCatV2.01B30,2014-12-26 15:01:00,
2014-12-26 16:06:00,39.8,39.3,30.33,SW,215,0.0,0.0,98,0.00,,,0.01,WeatherCatV2.01B30,2014-12-26 15:06:00,
2014-12-26 16:11:00,39.6,39.1,30.33,ESE,102,0.0,2.0,98,0.00,,,0.01,WeatherCatV2.01B30,2014-12-26 15:11:00,
2014-12-26 16:16:00,39.6,39.1,30.33,ESE,102,0.0,0.0,98,0.00,,,0.01,WeatherCatV2.01B30,2014-12-26 15:16:00,
2014-12-26 16:21:00,39.5,39.0,30.32,ESE,102,0.0,0.0,98,0.00,,,0.01,WeatherCatV2.01B30,2014-12-26 15:21:00,
2014-12-26 16:26:00,39.4,38.9,30.32,ESE,102,0.0,0.0,98,0.00,,,0.01,WeatherCatV2.01B30,2014-12-26 15:26:00,
2014-12-26 16:31:00,39.4,38.9,30.32,ESE,102,0.0,0.0,98,0.00,,,0.01,WeatherCatV2.01B30,2014-12-26 15:31:00,
2014-12-26 16:36:00,39.3,38.8,30.32,ESE,102,0.0,0.0,98,0.00,,,0.01,WeatherCatV2.01B30,2014-12-26 15:36:00,